Time;durP1;ratioP1;P1;durP2;ratioP2;P2;SDS_P1;SDS_P2;PMS_P1;PMS_P2;Temp;Humidity;BMP_temperature;BMP_pressure;BME280_temperature;BME280_humidity;BME280_pressure;Samples;Min_cycle;Max_cycle;Signal;HPM_P1;HPM_P2
2022/12/21 00:00:17;;;;;;;26.50;10.90;;;0.60;99.90;;;;;;5076726;28;20206;-85
2022/12/21 00:02:43;;;;;;;27.90;11.27;;;0.60;99.90;;;;;;5075028;28;20181;-84
2022/12/21 00:05:09;;;;;;;24.20;10.93;;;0.50;99.90;;;;;;5074933;28;20185;-83
2022/12/21 00:07:35;;;;;;;21.03;10.50;;;0.60;99.90;;;;;;5076421;28;20247;-85
2022/12/21 00:10:03;;;;;;;22.23;11.13;;;0.50;99.90;;;;;;5081797;28;20173;-85
2022/12/21 00:12:29;;;;;;;26.00;12.10;;;0.50;99.90;;;;;;5079023;28;20180;-85
2022/12/21 00:14:55;;;;;;;23.83;11.40;;;0.60;99.90;;;;;;5080390;28;20170;-86
2022/12/21 00:17:21;;;;;;;29.43;12.07;;;0.60;99.90;;;;;;5076908;28;20663;-84
2022/12/21 00:19:48;;;;;;;18.57;9.77;;;0.50;99.90;;;;;;5076129;28;20197;-85
2022/12/21 00:22:13;;;;;;;28.17;11.57;;;0.50;99.90;;;;;;5074993;28;20176;-85
2022/12/21 00:24:39;;;;;;;26.60;11.23;;;0.50;99.90;;;;;;5088881;28;20181;-84
2022/12/21 00:27:05;;;;;;;22.27;11.67;;;0.50;99.90;;;;;;5097440;28;20172;-83
2022/12/21 00:29:31;;;;;;;20.40;10.43;;;0.50;99.90;;;;;;5087343;28;20207;-85
2022/12/21 00:31:56;;;;;;;23.37;10.97;;;0.50;99.90;;;;;;5079356;28;20249;-84
2022/12/21 00:34:23;;;;;;;25.20;11.70;;;0.40;99.90;;;;;;5080905;28;20244;-85
2022/12/21 00:36:52;;;;;;;24.97;10.23;;;0.40;99.90;;;;;;5080149;28;20169;-81
2022/12/21 00:39:18;;;;;;;21.50;10.77;;;0.40;99.90;;;;;;5100366;28;20154;-79
2022/12/21 00:41:44;;;;;;;22.77;10.70;;;0.50;99.90;;;;;;5091073;28;20204;-85
2022/12/21 00:44:10;;;;;;;23.93;10.53;;;0.50;99.90;;;;;;5076029;28;20182;-84
2022/12/21 00:46:38;;;;;;;24.70;11.00;;;0.50;99.90;;;;;;5074220;28;20227;-85
2022/12/21 00:49:06;;;;;;;25.70;10.20;;;0.50;99.90;;;;;;5074030;28;20204;-85
2022/12/21 00:51:35;;;;;;;25.63;11.50;;;0.50;99.90;;;;;;5075591;28;20260;-86
2022/12/21 00:54:01;;;;;;;25.50;11.53;;;0.40;99.90;;;;;;5075524;28;20275;-84
2022/12/21 00:56:28;;;;;;;22.97;11.33;;;0.40;99.90;;;;;;5074258;28;20205;-84
2022/12/21 00:58:54;;;;;;;28.40;11.93;;;0.50;99.90;;;;;;5076324;28;20214;-86
2022/12/21 01:01:22;;;;;;;28.63;12.97;;;0.50;99.90;;;;;;5076211;28;20816;-84
2022/12/21 01:03:49;;;;;;;27.80;11.23;;;0.40;99.90;;;;;;5074954;28;20637;-85
2022/12/21 01:06:18;;;;;;;26.60;11.30;;;0.40;99.90;;;;;;5074981;28;20201;-86
2022/12/21 01:08:44;;;;;;;28.70;11.77;;;0.50;99.90;;;;;;5075086;28;20165;-84
2022/12/21 01:11:12;;;;;;;32.27;11.37;;;0.50;99.90;;;;;;5083302;28;20179;-85
2022/12/21 01:13:39;;;;;;;25.03;10.90;;;0.40;99.90;;;;;;5075206;28;20570;-85
2022/12/21 01:16:23;;;;;;;25.13;11.57;;;0.40;99.90;;;;;;5075018;28;20178;-86
2022/12/21 01:18:49;;;;;;;24.43;10.90;;;0.40;99.90;;;;;;5074848;28;20215;-85
2022/12/21 01:21:24;;;;;;;23.30;10.50;;;0.40;99.90;;;;;;5080862;28;20176;-85
2022/12/21 01:23:50;;;;;;;20.63;10.47;;;0.40;99.90;;;;;;5077997;28;20664;-85
2022/12/21 01:26:16;;;;;;;28.60;11.67;;;0.40;99.90;;;;;;5074833;28;20540;-85
2022/12/21 01:28:42;;;;;;;22.13;10.23;;;0.40;99.90;;;;;;5074747;28;20183;-86
2022/12/21 01:31:08;;;;;;;22.20;10.37;;;0.40;99.90;;;;;;5074615;28;20177;-86
2022/12/21 01:33:34;;;;;;;22.27;10.10;;;0.40;99.90;;;;;;5074584;28;20288;-84
2022/12/21 01:36:08;;;;;;;31.17;13.27;;;0.40;99.90;;;;;;5074646;28;20227;-85
2022/12/21 01:38:35;;;;;;;24.20;10.67;;;0.50;99.90;;;;;;5074965;28;20172;-84
2022/12/21 01:41:02;;;;;;;29.80;11.93;;;0.40;99.90;;;;;;5079733;28;20526;-85
2022/12/21 01:44:09;;;;;;;26.67;11.57;;;0.40;99.90;;;;;;5076149;28;20215;-85
2022/12/21 01:46:43;;;;;;;23.53;11.17;;;0.30;99.90;;;;;;5065844;28;20660;-87
2022/12/21 01:49:16;;;;;;;31.57;11.97;;;0.40;99.90;;;;;;5074041;28;20168;-86
2022/12/21 01:51:44;;;;;;;31.07;12.33;;;0.30;99.90;;;;;;5074014;28;20173;-83
2022/12/21 01:54:39;;;;;;;30.03;11.33;;;0.30;99.90;;;;;;5074004;28;20210;-86
2022/12/21 01:57:08;;;;;;;27.70;11.90;;;0.30;99.90;;;;;;5074162;28;20169;-85
2022/12/21 01:59:42;;;;;;;25.37;10.80;;;0.30;99.90;;;;;;5074018;28;20172;-85
2022/12/21 02:02:13;;;;;;;28.50;11.97;;;0.40;99.90;;;;;;5073934;28;20499;-82
2022/12/21 02:04:41;;;;;;;30.40;11.97;;;0.40;99.90;;;;;;5073586;28;20204;-84
2022/12/21 02:07:07;;;;;;;25.17;12.10;;;0.50;99.90;;;;;;5073960;28;20255;-83
2022/12/21 02:09:36;;;;;;;30.87;13.00;;;0.50;99.90;;;;;;5083195;28;20176;-85
2022/12/21 02:12:05;;;;;;;28.50;12.10;;;0.50;99.90;;;;;;5097368;28;20899;-83
2022/12/21 02:14:33;;;;;;;28.60;12.73;;;0.50;99.90;;;;;;5082198;28;20205;-84
2022/12/21 02:17:10;;;;;;;28.80;12.07;;;0.50;99.90;;;;;;5074063;28;20176;-84
2022/12/21 02:19:51;;;;;;;32.03;13.33;;;0.40;99.90;;;;;;5073889;28;20189;-86
2022/12/21 02:22:32;;;;;;;27.93;11.63;;;0.50;99.90;;;;;;5074102;28;20860;-85
2022/12/21 02:25:17;;;;;;;42.03;13.67;;;0.40;99.90;;;;;;5091516;28;20157;-84
2022/12/21 02:28:01;;;;;;;32.20;12.70;;;0.40;99.90;;;;;;5079498;28;20174;-85
2022/12/21 02:30:51;;;;;;;29.10;12.23;;;0.40;99.90;;;;;;5074122;28;20512;-85
2022/12/21 02:33:16;;;;;;;39.00;13.90;;;0.40;99.90;;;;;;5077187;28;20204;-86
2022/12/21 02:35:52;;;;;;;30.60;13.37;;;0.40;99.90;;;;;;5073657;28;20208;-85
2022/12/21 02:38:30;;;;;;;29.53;13.43;;;0.40;99.90;;;;;;5077255;28;20635;-85
2022/12/21 02:41:03;;;;;;;31.60;12.50;;;0.40;99.90;;;;;;5083748;28;20185;-85
2022/12/21 02:44:13;;;;;;;40.00;13.73;;;0.40;99.90;;;;;;5079560;28;20186;-85
2022/12/21 02:46:56;;;;;;;34.30;13.73;;;0.40;99.90;;;;;;5073181;28;20165;-84
2022/12/21 02:49:32;;;;;;;38.80;13.10;;;0.30;99.90;;;;;;5073514;28;20197;-86
2022/12/21 02:52:21;;;;;;;34.53;13.73;;;0.40;99.90;;;;;;5076503;28;20197;-82
2022/12/21 02:54:47;;;;;;;35.27;14.30;;;0.40;99.90;;;;;;5075794;28;20748;-87
2022/12/21 02:57:13;;;;;;;35.83;13.87;;;0.40;99.90;;;;;;5073020;28;20244;-85
2022/12/21 02:59:46;;;;;;;36.57;13.73;;;0.40;99.90;;;;;;5072774;28;20263;-83
2022/12/21 03:02:28;;;;;;;33.53;13.27;;;0.40;99.90;;;;;;5072877;28;20157;-85
2022/12/21 03:05:20;;;;;;;31.63;13.47;;;0.40;99.90;;;;;;5072839;28;20640;-83
2022/12/21 03:08:01;;;;;;;33.93;13.40;;;0.40;99.90;;;;;;5072430;28;20217;-82
2022/12/21 03:10:27;;;;;;;41.03;13.20;;;0.30;99.90;;;;;;5054842;28;20174;-82
2022/12/21 03:13:33;;;;;;;38.63;14.77;;;0.30;99.90;;;;;;5072701;28;20553;-84
2022/12/21 03:16:27;;;;;;;43.50;14.57;;;0.30;99.90;;;;;;5072959;28;20159;-83
2022/12/21 03:20:00;;;;;;;32.03;13.57;;;0.40;99.90;;;;;;5072890;28;20160;-85
2022/12/21 03:22:40;;;;;;;34.87;12.60;;;0.40;99.90;;;;;;5007658;28;20182;-80
2022/12/21 03:25:21;;;;;;;37.80;13.90;;;0.40;99.90;;;;;;5050503;28;20169;-85
2022/12/21 03:27:50;;;;;;;38.80;14.57;;;0.40;99.90;;;;;;5049618;28;20174;-87
2022/12/21 03:30:19;;;;;;;35.87;13.33;;;0.40;99.90;;;;;;5050112;28;20189;-86
2022/12/21 03:33:01;;;;;;;36.03;14.10;;;0.30;99.90;;;;;;5050066;28;20306;-85
2022/12/21 03:35:38;;;;;;;34.37;13.27;;;0.40;99.90;;;;;;5050036;28;20171;-85
2022/12/21 03:38:11;;;;;;;38.00;14.43;;;0.40;99.90;;;;;;5050430;28;20272;-85
2022/12/21 03:40:42;;;;;;;35.93;14.50;;;0.30;99.90;;;;;;5036904;28;20165;-81
2022/12/21 03:43:40;;;;;;;40.60;14.00;;;0.30;99.90;;;;;;5075658;28;20251;-80
2022/12/21 03:46:28;;;;;;;33.47;13.13;;;0.30;99.90;;;;;;4983553;28;20209;-85
2022/12/21 03:48:58;;;;;;;37.87;14.17;;;0.40;99.90;;;;;;4972069;28;20255;-84
2022/12/21 03:51:46;;;;;;;30.80;12.93;;;0.40;99.90;;;;;;4975448;28;20173;-84
2022/12/21 03:54:30;;;;;;;32.83;13.73;;;0.30;99.90;;;;;;4972365;28;20208;-84
2022/12/21 03:56:57;;;;;;;33.57;13.70;;;0.40;99.90;;;;;;5008633;28;20205;-84
2022/12/21 03:59:23;;;;;;;33.47;13.33;;;0.30;99.90;;;;;;5010590;28;20214;-87
2022/12/21 04:01:58;;;;;;;34.23;13.40;;;0.30;99.90;;;;;;5010472;28;20664;-85
2022/12/21 04:04:34;;;;;;;40.40;13.77;;;0.30;99.90;;;;;;5010335;28;20193;-85
2022/12/21 04:07:03;;;;;;;33.73;13.17;;;0.40;99.90;;;;;;5011230;28;20274;-84
2022/12/21 04:09:29;;;;;;;30.57;11.90;;;0.40;99.90;;;;;;5012926;28;20224;-80
2022/12/21 04:14:40;;;;;;;29.80;12.43;;;0.40;99.90;;;;;;5010501;28;20649;-80
2022/12/21 04:17:07;;;;;;;37.67;12.27;;;0.40;99.90;;;;;;5011311;28;20178;-79
2022/12/21 04:30:31;;;;;;;36.47;13.70;;;0.40;99.90;;;;;;5072223;28;20224;-85
2022/12/21 04:32:57;;;;;;;34.70;13.27;;;0.40;99.90;;;;;;5071944;28;20197;-86
2022/12/21 04:35:22;;;;;;;35.93;13.53;;;0.40;99.90;;;;;;5088240;28;20176;-80
2022/12/21 04:37:48;;;;;;;29.33;11.93;;;0.40;99.90;;;;;;5080721;28;20260;-85
2022/12/21 04:40:14;;;;;;;34.53;12.60;;;0.40;99.90;;;;;;5076031;28;20176;-85
2022/12/21 04:42:40;;;;;;;27.83;12.43;;;0.40;99.90;;;;;;5075483;28;20725;-84
2022/12/21 04:45:06;;;;;;;33.73;12.37;;;0.40;99.90;;;;;;5075296;28;20173;-85
2022/12/21 04:47:32;;;;;;;33.97;11.53;;;0.30;99.90;;;;;;5075429;28;20164;-84
2022/12/21 04:49:58;;;;;;;29.47;12.37;;;0.30;99.90;;;;;;5075044;28;20165;-81
2022/12/21 04:52:23;;;;;;;29.40;12.67;;;0.40;99.90;;;;;;5075174;28;20169;-84
2022/12/21 04:54:49;;;;;;;25.17;11.00;;;0.40;99.90;;;;;;5075139;28;20238;-87
2022/12/21 04:57:16;;;;;;;29.87;12.37;;;0.40;99.90;;;;;;5075135;28;20196;-83
2022/12/21 04:59:42;;;;;;;27.40;11.77;;;0.40;99.90;;;;;;5075765;28;20600;-85
2022/12/21 05:02:07;;;;;;;28.13;12.17;;;0.30;99.90;;;;;;5076661;28;20246;-86
2022/12/21 05:04:34;;;;;;;28.20;11.47;;;0.40;99.90;;;;;;5075144;28;20205;-84
2022/12/21 05:07:00;;;;;;;24.60;11.93;;;0.30;99.90;;;;;;5074921;28;20282;-84
2022/12/21 05:09:25;;;;;;;24.67;10.60;;;0.20;99.90;;;;;;5073736;28;20225;-84
2022/12/21 05:11:53;;;;;;;25.17;11.90;;;0.10;99.90;;;;;;5083042;28;20176;-86
2022/12/21 05:14:19;;;;;;;24.23;10.43;;;0.10;99.90;;;;;;5099239;28;20225;-84
2022/12/21 05:16:45;;;;;;;29.70;11.17;;;0.10;99.90;;;;;;5088012;28;20174;-85
2022/12/21 05:19:13;;;;;;;25.27;10.70;;;0.00;99.90;;;;;;5086524;28;20167;-83
2022/12/21 05:21:39;;;;;;;28.97;11.20;;;0.10;99.90;;;;;;5082485;28;20268;-87
2022/12/21 05:24:05;;;;;;;24.10;10.33;;;0.10;99.90;;;;;;5075542;28;20265;-82
2022/12/21 05:26:30;;;;;;;25.50;10.57;;;0.20;99.90;;;;;;5057030;28;20192;-86
2022/12/21 05:28:56;;;;;;;23.53;11.30;;;0.20;99.90;;;;;;5078042;28;20180;-86
2022/12/21 05:31:22;;;;;;;25.03;11.00;;;0.20;99.90;;;;;;5077895;28;20531;-86
2022/12/21 05:33:48;;;;;;;25.27;11.50;;;0.10;99.90;;;;;;5074253;28;20676;-84
2022/12/21 05:36:16;;;;;;;26.43;11.23;;;0.10;99.90;;;;;;5074480;28;20201;-85
2022/12/21 05:38:42;;;;;;;30.93;11.90;;;0.10;99.90;;;;;;5080712;28;20177;-84
2022/12/21 05:41:11;;;;;;;27.50;11.63;;;0.00;99.90;;;;;;5074425;28;20594;-83
2022/12/21 05:43:36;;;;;;;27.23;12.43;;;0.00;99.90;;;;;;5074706;28;20541;-85
2022/12/21 05:46:04;;;;;;;29.77;11.43;;;0.00;99.90;;;;;;5073106;28;20183;-85
2022/12/21 05:48:31;;;;;;;30.73;12.70;;;0.00;99.90;;;;;;5077215;28;20167;-84
2022/12/21 05:50:57;;;;;;;23.10;11.13;;;0.00;99.90;;;;;;5075113;28;20520;-84
2022/12/21 05:53:23;;;;;;;25.83;12.03;;;-0.10;99.90;;;;;;5075609;28;20384;-84
2022/12/21 05:55:49;;;;;;;24.03;11.23;;;-0.10;99.90;;;;;;5056413;28;20590;-85
2022/12/21 05:58:15;;;;;;;28.53;11.40;;;-0.10;99.90;;;;;;5074533;28;20183;-86
2022/12/21 06:00:41;;;;;;;23.83;10.70;;;-0.10;99.90;;;;;;5081989;28;20531;-84
2022/12/21 06:03:07;;;;;;;30.17;11.67;;;-0.10;99.90;;;;;;5074527;28;20207;-82
2022/12/21 06:05:36;;;;;;;24.23;11.00;;;-0.10;99.90;;;;;;5074165;28;20266;-85
2022/12/21 06:08:02;;;;;;;31.70;11.47;;;-0.10;99.90;;;;;;5073396;28;20711;-85
2022/12/21 06:10:28;;;;;;;25.70;10.10;;;-0.20;99.90;;;;;;5073752;28;20205;-85
2022/12/21 06:12:54;;;;;;;23.20;10.63;;;-0.30;99.90;;;;;;5073298;28;20255;-87
2022/12/21 06:15:20;;;;;;;26.93;10.97;;;-0.30;99.90;;;;;;5073649;28;20250;-80
2022/12/21 06:17:45;;;;;;;27.33;11.57;;;-0.30;99.90;;;;;;5073576;28;20179;-86
2022/12/21 06:20:12;;;;;;;27.07;10.90;;;-0.40;99.90;;;;;;5073666;28;20518;-85
2022/12/21 06:22:40;;;;;;;25.37;10.77;;;-0.40;99.90;;;;;;5072011;28;20237;-84
2022/12/21 06:25:07;;;;;;;24.37;10.60;;;-0.40;99.90;;;;;;5073175;28;20663;-86
2022/12/21 06:27:33;;;;;;;29.07;12.43;;;-0.40;99.90;;;;;;5073897;28;20176;-86
2022/12/21 06:29:59;;;;;;;27.33;11.50;;;-0.30;99.90;;;;;;5074218;28;20213;-85
2022/12/21 06:32:25;;;;;;;22.53;10.60;;;-0.40;99.90;;;;;;5072323;28;20200;-81
2022/12/21 06:34:50;;;;;;;28.80;12.30;;;-0.40;99.90;;;;;;5079469;28;20243;-83
2022/12/21 06:37:16;;;;;;;26.67;11.00;;;-0.30;99.90;;;;;;5075113;28;20580;-83
2022/12/21 06:39:42;;;;;;;23.37;10.53;;;-0.30;99.90;;;;;;5074226;28;20187;-84
2022/12/21 06:42:08;;;;;;;30.13;11.43;;;-0.20;99.90;;;;;;5076883;28;20180;-83
2022/12/21 06:44:34;;;;;;;26.20;11.10;;;-0.20;99.90;;;;;;5094227;28;20156;-81
2022/12/21 06:46:59;;;;;;;21.87;10.97;;;-0.10;99.90;;;;;;5098381;28;20178;-81
2022/12/21 06:49:25;;;;;;;22.03;10.60;;;-0.10;99.90;;;;;;5077167;28;20703;-85
2022/12/21 06:51:51;;;;;;;23.23;11.07;;;-0.20;99.90;;;;;;5076751;28;20679;-85
2022/12/21 06:54:18;;;;;;;22.87;10.73;;;-0.10;99.90;;;;;;5073775;28;20708;-85
2022/12/21 06:56:43;;;;;;;22.87;10.50;;;-0.10;99.90;;;;;;5073592;28;20655;-84
2022/12/21 06:59:09;;;;;;;23.97;10.57;;;-0.10;99.90;;;;;;5073443;28;20185;-86
2022/12/21 07:01:35;;;;;;;26.00;11.10;;;-0.20;99.90;;;;;;5072148;28;20187;-84
2022/12/21 07:04:01;;;;;;;20.73;9.53;;;-0.20;99.90;;;;;;5073330;28;20255;-87
2022/12/21 07:06:29;;;;;;;19.57;9.07;;;-0.30;99.90;;;;;;5073872;28;20262;-84
2022/12/21 07:08:55;;;;;;;20.50;9.90;;;-0.30;99.90;;;;;;5080744;28;20168;-83
2022/12/21 07:11:24;;;;;;;24.60;9.30;;;-0.30;99.90;;;;;;5073217;28;20231;-83
2022/12/21 07:13:52;;;;;;;17.97;9.13;;;-0.30;99.90;;;;;;5072629;28;20215;-84
2022/12/21 07:16:19;;;;;;;21.00;9.90;;;-0.40;99.90;;;;;;5073025;28;20173;-85
2022/12/21 07:18:45;;;;;;;22.03;9.47;;;-0.30;99.90;;;;;;5077818;28;20531;-84
2022/12/21 07:21:14;;;;;;;18.67;8.93;;;-0.30;99.90;;;;;;5073092;28;20179;-84
2022/12/21 07:23:40;;;;;;;21.80;10.13;;;-0.20;99.90;;;;;;5073936;28;20184;-86
2022/12/21 07:26:15;;;;;;;20.30;9.93;;;-0.20;99.90;;;;;;5072731;28;20208;-83
2022/12/21 07:28:43;;;;;;;19.73;9.07;;;-0.30;99.90;;;;;;5072885;28;20203;-83
2022/12/21 07:31:11;;;;;;;22.10;8.73;;;-0.40;99.90;;;;;;5072880;28;20169;-84
2022/12/21 07:33:40;;;;;;;17.03;9.17;;;-0.40;99.90;;;;;;5073120;28;20209;-84
2022/12/21 07:36:06;;;;;;;21.03;9.07;;;-0.30;99.90;;;;;;5071472;28;20181;-83
2022/12/21 07:38:34;;;;;;;14.47;8.03;;;-0.20;99.90;;;;;;5082498;28;20228;-84
2022/12/21 07:41:03;;;;;;;13.90;8.30;;;-0.20;99.90;;;;;;5076636;28;20177;-86
2022/12/21 07:43:29;;;;;;;15.97;8.53;;;-0.30;99.90;;;;;;5073235;28;20188;-87
2022/12/21 07:45:55;;;;;;;15.27;8.10;;;-0.30;99.90;;;;;;5084442;28;20161;-85
2022/12/21 07:48:22;;;;;;;16.97;8.50;;;-0.20;99.90;;;;;;5092974;28;20178;-83
2022/12/21 07:50:50;;;;;;;14.67;9.13;;;-0.20;99.90;;;;;;5079532;28;20228;-85
2022/12/21 07:53:16;;;;;;;19.50;9.43;;;-0.20;99.90;;;;;;5075254;28;20203;-85
2022/12/21 07:55:42;;;;;;;17.13;8.70;;;-0.10;99.90;;;;;;5073754;28;20168;-83
2022/12/21 07:58:08;;;;;;;19.17;9.13;;;-0.10;99.90;;;;;;5072942;28;21080;-85
2022/12/21 08:00:34;;;;;;;18.03;8.53;;;-0.20;99.90;;;;;;5071769;28;20239;-79
2022/12/21 08:03:00;;;;;;;18.77;9.40;;;-0.30;99.90;;;;;;5072773;28;20179;-84
2022/12/21 08:05:26;;;;;;;16.87;8.93;;;-0.30;99.90;;;;;;5071502;28;20245;-85
2022/12/21 08:07:52;;;;;;;18.03;8.43;;;-0.30;99.90;;;;;;5072512;28;20259;-84
2022/12/21 08:10:18;;;;;;;16.80;9.03;;;-0.30;99.90;;;;;;5071316;28;20173;-86
2022/12/21 08:12:44;;;;;;;19.53;9.10;;;-0.20;99.90;;;;;;5072781;28;20185;-84
2022/12/21 08:15:10;;;;;;;16.50;8.17;;;0.00;99.90;;;;;;5077015;28;20181;-87
2022/12/21 08:17:36;;;;;;;21.07;9.63;;;0.00;99.90;;;;;;5097951;28;20176;-84
2022/12/21 08:20:03;;;;;;;21.77;8.67;;;0.00;99.90;;;;;;5097490;28;20211;-83
2022/12/21 08:22:29;;;;;;;16.33;8.50;;;0.20;99.90;;;;;;5078225;28;20204;-85
2022/12/21 08:24:55;;;;;;;22.53;9.43;;;0.30;99.90;;;;;;5076291;28;20201;-84
2022/12/21 08:27:21;;;;;;;19.27;8.97;;;0.40;99.90;;;;;;5076396;28;20174;-87
2022/12/21 08:29:46;;;;;;;16.77;9.00;;;0.40;99.90;;;;;;5074661;28;20189;-85
2022/12/21 08:32:12;;;;;;;18.60;9.33;;;0.30;99.90;;;;;;5075578;28;20182;-82
2022/12/21 08:34:38;;;;;;;17.23;9.17;;;0.30;99.90;;;;;;5075596;28;20250;-84
2022/12/21 08:37:03;;;;;;;20.30;10.13;;;0.30;99.90;;;;;;5080678;28;20205;-83
2022/12/21 08:39:29;;;;;;;21.33;9.07;;;0.30;99.90;;;;;;5077187;28;20594;-84
2022/12/21 08:41:55;;;;;;;18.17;9.80;;;0.40;99.90;;;;;;5075665;28;20242;-84
2022/12/21 08:44:21;;;;;;;20.03;9.37;;;0.40;99.90;;;;;;5075845;28;20256;-83
2022/12/21 08:46:46;;;;;;;17.20;8.10;;;0.40;99.90;;;;;;5078427;28;20241;-85
2022/12/21 08:49:12;;;;;;;16.97;9.47;;;0.60;99.90;;;;;;5077689;28;20234;-83
2022/12/21 08:51:39;;;;;;;18.00;9.70;;;0.50;99.90;;;;;;5075806;28;20173;-84
2022/12/21 08:54:08;;;;;;;20.90;10.27;;;0.50;99.90;;;;;;5075826;28;20207;-82
2022/12/21 08:56:35;;;;;;;18.93;10.00;;;0.60;99.90;;;;;;5089848;28;20253;-83
2022/12/21 08:59:05;;;;;;;21.97;11.03;;;0.70;99.90;;;;;;5092359;28;20160;-85
2022/12/21 09:01:32;;;;;;;20.50;9.37;;;0.60;99.90;;;;;;5083575;28;20161;-84
2022/12/21 09:04:04;;;;;;;21.43;9.63;;;0.60;99.90;;;;;;5076209;28;20259;-84
2022/12/21 09:06:30;;;;;;;23.77;10.47;;;0.70;99.90;;;;;;5078789;28;20712;-85
2022/12/21 09:08:59;;;;;;;19.93;9.90;;;0.80;99.90;;;;;;5074764;28;20263;-83
2022/12/21 09:11:27;;;;;;;20.93;10.30;;;0.90;99.90;;;;;;5074364;28;20185;-82
2022/12/21 09:13:53;;;;;;;21.07;10.67;;;0.90;99.90;;;;;;5074181;28;20477;-82
2022/12/21 09:16:21;;;;;;;22.40;10.07;;;0.90;99.90;;;;;;5076812;28;20198;-83
2022/12/21 09:18:47;;;;;;;21.67;10.40;;;0.90;99.90;;;;;;5083672;28;20182;-82
2022/12/21 09:21:15;;;;;;;21.83;10.90;;;1.00;99.90;;;;;;5076883;28;20222;-84
2022/12/21 09:23:42;;;;;;;18.93;10.03;;;1.10;99.90;;;;;;5075710;28;20181;-85
2022/12/21 09:26:08;;;;;;;22.27;10.40;;;1.10;99.90;;;;;;5074242;28;20178;-83
2022/12/21 09:28:35;;;;;;;22.50;9.87;;;1.20;99.90;;;;;;5076627;28;20209;-85
2022/12/21 09:31:08;;;;;;;19.70;9.60;;;1.20;99.90;;;;;;5075615;28;20169;-83
2022/12/21 09:33:34;;;;;;;18.07;8.60;;;1.20;99.90;;;;;;5076147;28;20255;-84
2022/12/21 09:36:01;;;;;;;19.40;10.30;;;1.20;99.90;;;;;;5075320;28;20252;-85
2022/12/21 09:38:29;;;;;;;22.87;10.20;;;1.20;99.90;;;;;;5075353;28;20212;-86
2022/12/21 09:41:23;;;;;;;24.97;11.00;;;1.20;99.90;;;;;;5073993;28;20185;-84
2022/12/21 09:44:07;;;;;;;19.93;10.30;;;1.30;99.90;;;;;;5069782;28;20210;-84
2022/12/21 09:46:38;;;;;;;22.40;9.43;;;1.30;99.90;;;;;;5079691;28;20177;-80
2022/12/21 09:49:10;;;;;;;21.20;10.13;;;1.30;99.90;;;;;;5086438;28;20180;-83
2022/12/21 09:51:36;;;;;;;19.17;10.77;;;1.30;99.90;;;;;;5093694;28;20235;-85
2022/12/21 09:54:15;;;;;;;23.23;10.43;;;1.40;99.90;;;;;;5077314;28;20236;-83
2022/12/21 09:56:46;;;;;;;22.17;10.67;;;1.40;99.90;;;;;;5075098;28;20172;-82
2022/12/21 09:59:14;;;;;;;24.53;10.83;;;1.50;99.90;;;;;;5075111;28;20171;-84
2022/12/21 10:02:00;;;;;;;23.70;11.23;;;1.50;99.90;;;;;;5074845;28;20179;-84
2022/12/21 10:05:00;;;;;;;26.63;10.77;;;1.60;99.90;;;;;;5077554;28;20193;-81
2022/12/21 10:07:59;;;;;;;23.40;10.77;;;1.60;99.90;;;;;;5074762;28;20738;-85
2022/12/21 10:10:39;;;;;;;24.47;11.13;;;1.60;99.90;;;;;;5074661;28;20172;-84
2022/12/21 10:13:20;;;;;;;22.53;10.87;;;1.60;99.90;;;;;;5076971;28;20163;-83
2022/12/21 10:16:18;;;;;;;22.30;11.30;;;1.60;99.90;;;;;;5083759;28;20561;-83
2022/12/21 10:19:17;;;;;;;22.27;10.87;;;1.60;99.90;;;;;;5055158;28;20371;-84
2022/12/21 10:22:02;;;;;;;23.17;10.90;;;1.60;99.90;;;;;;5052141;28;20208;-84
2022/12/21 10:25:02;;;;;;;24.93;11.53;;;1.70;99.90;;;;;;5055537;28;20273;-84
2022/12/21 10:27:36;;;;;;;19.23;10.23;;;1.80;99.90;;;;;;5038143;28;20187;-82
2022/12/21 10:30:02;;;;;;;28.63;13.97;;;1.80;99.90;;;;;;5035990;28;20176;-82
2022/12/21 10:32:32;;;;;;;23.73;11.97;;;1.80;99.90;;;;;;5035372;28;20547;-78
2022/12/21 10:35:21;;;;;;;22.60;12.00;;;1.70;99.90;;;;;;5051550;28;20718;-82
2022/12/21 10:37:52;;;;;;;20.77;11.47;;;1.80;99.90;;;;;;5050600;28;20213;-82
2022/12/21 10:40:23;;;;;;;23.13;12.17;;;1.80;99.90;;;;;;5035034;28;20168;-84
2022/12/21 10:42:50;;;;;;;23.13;11.23;;;1.90;99.90;;;;;;5057190;28;20176;-82
2022/12/21 10:45:20;;;;;;;23.53;11.30;;;1.90;99.90;;;;;;5041353;28;20180;-79
2022/12/21 10:47:49;;;;;;;24.33;11.90;;;1.90;99.90;;;;;;5052830;28;20205;-79
2022/12/21 10:50:22;;;;;;;25.70;12.70;;;2.00;99.90;;;;;;5052383;28;20183;-84
2022/12/21 10:52:50;;;;;;;26.97;12.73;;;2.00;99.90;;;;;;5038647;28;20169;-82
2022/12/21 10:55:19;;;;;;;25.67;11.67;;;2.00;99.90;;;;;;5091729;28;20191;-79
2022/12/21 10:58:02;;;;;;;26.53;13.10;;;2.00;99.90;;;;;;5084853;28;20243;-82
2022/12/21 11:00:36;;;;;;;26.40;12.40;;;2.00;99.90;;;;;;5072899;28;20173;-85
2022/12/21 11:03:29;;;;;;;30.17;12.37;;;2.10;99.90;;;;;;5078894;28;20300;-80
2022/12/21 11:05:55;;;;;;;25.53;12.07;;;2.10;99.90;;;;;;5081968;28;20537;-82
2022/12/21 11:08:31;;;;;;;27.83;13.43;;;2.10;99.90;;;;;;5077336;28;20615;-82
2022/12/21 11:11:00;;;;;;;30.27;13.20;;;2.20;99.90;;;;;;5072398;28;20220;-81
2022/12/21 11:13:29;;;;;;;27.07;12.87;;;2.30;99.90;;;;;;5073888;28;20499;-83
2022/12/21 11:16:09;;;;;;;30.07;13.47;;;2.30;99.90;;;;;;5075117;28;20205;-82
2022/12/21 11:18:42;;;;;;;21.23;12.13;;;2.40;99.90;;;;;;5094828;28;20158;-81
2022/12/21 11:21:30;;;;;;;24.60;13.00;;;2.40;99.90;;;;;;5087423;28;20581;-84
2022/12/21 11:24:13;;;;;;;26.43;12.97;;;2.30;99.90;;;;;;5077438;28;20187;-84
2022/12/21 11:26:55;;;;;;;24.13;12.13;;;2.30;99.90;;;;;;5078309;28;20198;-82
2022/12/21 11:29:26;;;;;;;28.30;13.00;;;2.30;99.90;;;;;;5074305;28;20163;-84
2022/12/21 11:31:54;;;;;;;27.70;12.80;;;2.30;99.90;;;;;;5073819;28;20565;-80
2022/12/21 11:34:25;;;;;;;28.53;13.77;;;2.20;99.90;;;;;;5072670;28;20224;-84
2022/12/21 11:37:00;;;;;;;26.33;13.00;;;2.20;99.90;;;;;;5074239;28;20225;-80
2022/12/21 11:39:27;;;;;;;30.87;13.63;;;2.20;99.90;;;;;;5074720;28;20169;-84
2022/12/21 11:41:54;;;;;;;28.17;13.27;;;2.30;99.90;;;;;;5077011;28;20173;-82
2022/12/21 11:44:29;;;;;;;31.97;14.07;;;2.20;99.90;;;;;;5073907;28;20183;-81
2022/12/21 11:47:17;;;;;;;30.47;14.77;;;2.20;99.90;;;;;;5072562;28;20170;-83
2022/12/21 11:49:48;;;;;;;32.97;14.00;;;2.30;99.90;;;;;;5077072;28;20175;-83
2022/12/21 11:52:41;;;;;;;26.63;12.57;;;2.40;99.90;;;;;;5075977;28;20171;-85
2022/12/21 11:55:30;;;;;;;29.13;13.60;;;2.50;99.90;;;;;;5077364;28;20263;-84
2022/12/21 11:58:24;;;;;;;27.67;13.40;;;2.50;99.90;;;;;;5077262;28;20193;-86
2022/12/21 12:01:33;;;;;;;33.63;15.07;;;2.50;99.90;;;;;;5079458;28;20163;-82
2022/12/21 12:04:04;;;;;;;27.40;14.17;;;2.40;99.90;;;;;;5077275;28;20238;-83
2022/12/21 12:06:30;;;;;;;31.57;13.77;;;2.40;99.90;;;;;;5076986;28;20251;-81
2022/12/21 12:09:12;;;;;;;31.77;14.63;;;2.40;99.90;;;;;;5077235;28;20526;-87
2022/12/21 12:12:22;;;;;;;31.00;13.57;;;2.40;99.90;;;;;;5077101;28;20178;-85
2022/12/21 12:14:57;;;;;;;25.20;12.97;;;2.30;99.90;;;;;;5077141;28;20267;-79
2022/12/21 12:17:42;;;;;;;31.90;13.83;;;2.40;99.90;;;;;;5076829;28;20232;-82
2022/12/21 12:20:33;;;;;;;30.97;13.83;;;2.50;99.90;;;;;;5078797;28;20230;-85
2022/12/21 12:23:13;;;;;;;33.07;14.20;;;2.50;99.90;;;;;;5076966;28;20201;-85
2022/12/21 12:26:06;;;;;;;34.43;14.40;;;2.50;99.90;;;;;;5076503;28;20171;-83
2022/12/21 12:29:00;;;;;;;32.67;13.80;;;2.50;99.90;;;;;;5077292;28;20182;-83
2022/12/21 12:31:44;;;;;;;34.57;14.53;;;2.40;99.90;;;;;;5082261;28;20227;-85
2022/12/21 12:34:38;;;;;;;25.83;13.17;;;2.50;99.90;;;;;;5077103;28;20207;-85
2022/12/21 12:37:31;;;;;;;27.20;13.77;;;2.40;99.90;;;;;;5079384;28;20226;-81
2022/12/21 12:40:16;;;;;;;33.33;14.53;;;2.50;99.90;;;;;;5076754;28;20552;-85
2022/12/21 12:42:57;;;;;;;29.73;13.83;;;2.50;99.90;;;;;;5076064;28;20207;-83
2022/12/21 12:46:10;;;;;;;31.17;13.63;;;2.60;99.90;;;;;;5079369;28;20166;-82
2022/12/21 12:48:36;;;;;;;31.03;13.13;;;2.60;99.90;;;;;;5072369;28;20180;-86
2022/12/21 12:51:14;;;;;;;27.77;13.57;;;2.70;99.90;;;;;;5055264;28;20189;-84
2022/12/21 12:53:54;;;;;;;31.73;13.80;;;2.60;99.90;;;;;;5067854;28;20297;-82
2022/12/21 12:56:48;;;;;;;30.67;13.83;;;2.70;99.90;;;;;;5077362;28;20250;-82
2022/12/21 12:59:32;;;;;;;30.77;15.17;;;2.80;99.90;;;;;;5077324;28;20159;-83
2022/12/21 13:02:20;;;;;;;27.83;14.03;;;2.80;99.90;;;;;;5095976;28;20159;-81
2022/12/21 13:05:15;;;;;;;29.60;14.97;;;2.80;99.90;;;;;;5080370;28;20163;-83
2022/12/21 13:07:59;;;;;;;31.70;14.23;;;2.80;99.90;;;;;;5081424;28;20219;-86
2022/12/21 13:10:49;;;;;;;28.97;14.37;;;2.80;99.90;;;;;;5085949;28;20235;-85
2022/12/21 13:13:31;;;;;;;34.93;14.63;;;2.70;99.90;;;;;;5088058;28;20238;-82
2022/12/21 13:16:39;;;;;;;32.47;15.37;;;2.70;99.90;;;;;;5082762;28;20538;-84